(°C)
14°
12°
11°
11°
10°
(°C)
11°
10°
WNW
NW
NNW
ENE
SE
E
ENE
(km/h)
9-12
7-10
4-9
2-7
2-8
2-8
3-8
(mm)
0
0
0
0
0
0
0
(%)
0
0
0
0
0
0
0

Sun elevation

/ -9.2°
sun-icon
UV 6
07:02
20:12
(6°)
07:28
20:35

METAR for Janina (LGIO)

Czas Conditions Temperatura/
Punkt rosy
Wiatr Widzialność Pogoda Chmury Ciśn. atm. Change Raw
VFR 14°C / 6°C 320º 8kt >10km - Scattered Clouds 7000ft 1021 - LGIO 121720Z 32008KT 9999 SCT070 14/06 Q1021
VFR 15°C / 7°C 320º 8kt >10km - Scattered Clouds 7000ft 1021 - LGIO 121650Z 32008KT 9999 SCT070 15/07 Q1021
VFR 16°C / 7°C 320º 11kt >10km - Scattered Clouds 7000ft 1021 - LGIO 121620Z 32011KT 9999 SCT070 16/07 Q1021
VFR 18°C / 6°C 290º 6kt >10km - Scattered Clouds 7000ft 1020 - LGIO 121550Z 29006KT 9999 SCT070 18/06 Q1020
VFR 19°C / 6°C 290º 9kt >10km - Scattered Clouds 7000ft 1020 - LGIO 121520Z 29009KT 9999 SCT070 19/06 Q1020
VFR 20°C / 6°C 290º 9kt >10km - Broken Clouds 7000ft 1020 - LGIO 121450Z 29009KT 9999 BKN070 20/06 Q1020
VFR 21°C / 5°C variable 2kt >10km - Broken Clouds 7000ft 1020 - LGIO 121420Z VRB02KT 9999 BKN070 21/05 Q1020
20°C / 5°C 140º 4kt - 1020 - LGIO 121320Z AUTO 14004KT //// // ////// 20/05 Q1020 RE//
20°C / 5°C variable 3kt - 1021 - LGIO 121250Z AUTO VRB03KT //// // ////// 20/05 Q1021 RE//
21°C / 5°C 100º variable 330º to 320º 4kt - 1021 - LGIO 121220Z AUTO 10004KT 330V320 //// // ////// 21/05 Q1021 RE//
VFR 20°C / 5°C variable 3kt >10km - Clouds and Visibility OK 1021 - LGIO 121150Z VRB03KT CAVOK 20/05 Q1021
VFR 20°C / 6°C 140º 3kt >10km - Clouds and Visibility OK 1022 - LGIO 121120Z 14003KT CAVOK 20/06 Q1022
VFR 19°C / 5°C variable 3kt >10km - Clouds and Visibility OK 1022 - LGIO 121050Z VRB03KT CAVOK 19/05 Q1022
VFR 17°C / 5°C 120º variable 070º to 200º 5kt >10km - Clouds and Visibility OK 1023 - LGIO 120950Z 12005KT 070V200 CAVOK 17/05 Q1023
VFR 17°C / 2°C variable 2kt >10km - Clouds and Visibility OK 1023 - LGIO 120920Z VRB02KT CAVOK 17/02 Q1023
VFR 16°C / 2°C variable 2kt >10km - Clouds and Visibility OK 1023 - LGIO 120850Z VRB02KT CAVOK 16/02 Q1023
VFR 15°C / 4°C variable 2kt >10km - Clouds and Visibility OK 1023 - LGIO 120820Z VRB02KT CAVOK 15/04 Q1023
VFR 14°C / 5°C variable 2kt >10km - Clouds and Visibility OK 1024 - LGIO 120750Z VRB02KT CAVOK 14/05 Q1024
VFR 12°C / 6°C variable 2kt >10km - Clouds and Visibility OK 1024 - LGIO 120720Z VRB02KT CAVOK 12/06 Q1024
VFR 10°C / 6°C variable 2kt >10km - Few Clouds 400ft 1024 - LGIO 120650Z VRB02KT 9999 FEW004 10/06 Q1024
VFR 9°C / 5°C variable 1kt >10km - Few Clouds 400ft 1024 - LGIO 120620Z VRB01KT 9999 FEW004 09/05 Q1024
7°C / 5°C variable 1kt - 1024 - LGIO 120550Z AUTO VRB01KT //// // ////// 07/05 Q1024 RE//
5°C / 4°C variable 1kt - 1024 - LGIO 120520Z AUTO VRB01KT //// // ////// 05/04 Q1024 RE//
3°C / 2°C variable 1kt - 1024 - LGIO 120450Z AUTO VRB01KT //// // ////// 03/02 Q1024 RE//

VFR

14°C / 6°C

[Więcej]
Wiatr 320º 8kt
Widzialność >10km
Pogoda -
Chmury Scattered Clouds 7000ft
Ciśn. atm. 1021
Change -
Raw LGIO 121720Z 32008KT 9999 SCT070 14/06 Q1021

VFR

15°C / 7°C

[Więcej]
Wiatr 320º 8kt
Widzialność >10km
Pogoda -
Chmury Scattered Clouds 7000ft
Ciśn. atm. 1021
Change -
Raw LGIO 121650Z 32008KT 9999 SCT070 15/07 Q1021

VFR

16°C / 7°C

[Więcej]
Wiatr 320º 11kt
Widzialność >10km
Pogoda -
Chmury Scattered Clouds 7000ft
Ciśn. atm. 1021
Change -
Raw LGIO 121620Z 32011KT 9999 SCT070 16/07 Q1021

VFR

18°C / 6°C

[Więcej]
Wiatr 290º 6kt
Widzialność >10km
Pogoda -
Chmury Scattered Clouds 7000ft
Ciśn. atm. 1020
Change -
Raw LGIO 121550Z 29006KT 9999 SCT070 18/06 Q1020

VFR

19°C / 6°C

[Więcej]
Wiatr 290º 9kt
Widzialność >10km
Pogoda -
Chmury Scattered Clouds 7000ft
Ciśn. atm. 1020
Change -
Raw LGIO 121520Z 29009KT 9999 SCT070 19/06 Q1020

VFR

20°C / 6°C

[Więcej]
Wiatr 290º 9kt
Widzialność >10km
Pogoda -
Chmury Broken Clouds 7000ft
Ciśn. atm. 1020
Change -
Raw LGIO 121450Z 29009KT 9999 BKN070 20/06 Q1020

VFR

21°C / 5°C

[Więcej]
Wiatr variable 2kt
Widzialność >10km
Pogoda -
Chmury Broken Clouds 7000ft
Ciśn. atm. 1020
Change -
Raw LGIO 121420Z VRB02KT 9999 BKN070 21/05 Q1020

20°C / 5°C

[Więcej]
Wiatr 140º 4kt
Widzialność
Pogoda -
Chmury
Ciśn. atm. 1020
Change -
Raw LGIO 121320Z AUTO 14004KT //// // ////// 20/05 Q1020 RE//

20°C / 5°C

[Więcej]
Wiatr variable 3kt
Widzialność
Pogoda -
Chmury
Ciśn. atm. 1021
Change -
Raw LGIO 121250Z AUTO VRB03KT //// // ////// 20/05 Q1021 RE//

21°C / 5°C

[Więcej]
Wiatr 100º variable 330º to 320º 4kt
Widzialność
Pogoda -
Chmury
Ciśn. atm. 1021
Change -
Raw LGIO 121220Z AUTO 10004KT 330V320 //// // ////// 21/05 Q1021 RE//

VFR

20°C / 5°C

[Więcej]
Wiatr variable 3kt
Widzialność >10km
Pogoda -
Chmury Clouds and Visibility OK
Ciśn. atm. 1021
Change -
Raw LGIO 121150Z VRB03KT CAVOK 20/05 Q1021

VFR

20°C / 6°C

[Więcej]
Wiatr 140º 3kt
Widzialność >10km
Pogoda -
Chmury Clouds and Visibility OK
Ciśn. atm. 1022
Change -
Raw LGIO 121120Z 14003KT CAVOK 20/06 Q1022

VFR

19°C / 5°C

[Więcej]
Wiatr variable 3kt
Widzialność >10km
Pogoda -
Chmury Clouds and Visibility OK
Ciśn. atm. 1022
Change -
Raw LGIO 121050Z VRB03KT CAVOK 19/05 Q1022

VFR

17°C / 5°C

[Więcej]
Wiatr 120º variable 070º to 200º 5kt
Widzialność >10km
Pogoda -
Chmury Clouds and Visibility OK
Ciśn. atm. 1023
Change -
Raw LGIO 120950Z 12005KT 070V200 CAVOK 17/05 Q1023

VFR

17°C / 2°C

[Więcej]
Wiatr variable 2kt
Widzialność >10km
Pogoda -
Chmury Clouds and Visibility OK
Ciśn. atm. 1023
Change -
Raw LGIO 120920Z VRB02KT CAVOK 17/02 Q1023

VFR

16°C / 2°C

[Więcej]
Wiatr variable 2kt
Widzialność >10km
Pogoda -
Chmury Clouds and Visibility OK
Ciśn. atm. 1023
Change -
Raw LGIO 120850Z VRB02KT CAVOK 16/02 Q1023

VFR

15°C / 4°C

[Więcej]
Wiatr variable 2kt
Widzialność >10km
Pogoda -
Chmury Clouds and Visibility OK
Ciśn. atm. 1023
Change -
Raw LGIO 120820Z VRB02KT CAVOK 15/04 Q1023

VFR

14°C / 5°C

[Więcej]
Wiatr variable 2kt
Widzialność >10km
Pogoda -
Chmury Clouds and Visibility OK
Ciśn. atm. 1024
Change -
Raw LGIO 120750Z VRB02KT CAVOK 14/05 Q1024

VFR

12°C / 6°C

[Więcej]
Wiatr variable 2kt
Widzialność >10km
Pogoda -
Chmury Clouds and Visibility OK
Ciśn. atm. 1024
Change -
Raw LGIO 120720Z VRB02KT CAVOK 12/06 Q1024

VFR

10°C / 6°C

[Więcej]
Wiatr variable 2kt
Widzialność >10km
Pogoda -
Chmury Few Clouds 400ft
Ciśn. atm. 1024
Change -
Raw LGIO 120650Z VRB02KT 9999 FEW004 10/06 Q1024

VFR

9°C / 5°C

[Więcej]
Wiatr variable 1kt
Widzialność >10km
Pogoda -
Chmury Few Clouds 400ft
Ciśn. atm. 1024
Change -
Raw LGIO 120620Z VRB01KT 9999 FEW004 09/05 Q1024

7°C / 5°C

[Więcej]
Wiatr variable 1kt
Widzialność
Pogoda -
Chmury
Ciśn. atm. 1024
Change -
Raw LGIO 120550Z AUTO VRB01KT //// // ////// 07/05 Q1024 RE//

5°C / 4°C

[Więcej]
Wiatr variable 1kt
Widzialność
Pogoda -
Chmury
Ciśn. atm. 1024
Change -
Raw LGIO 120520Z AUTO VRB01KT //// // ////// 05/04 Q1024 RE//

3°C / 2°C

[Więcej]
Wiatr variable 1kt
Widzialność
Pogoda -
Chmury
Ciśn. atm. 1024
Change -
Raw LGIO 120450Z AUTO VRB01KT //// // ////// 03/02 Q1024 RE//

TAF for Janina (LGIO)

From till


From till Wind variable 3kt. Visibility 10km or more. Few Clouds 3000ft.
Becoming from till Wind variable 3kt. Visibility 10km or more. Scattered Clouds 3000ft. Broken Clouds 8000ft.

Raw: TAF LGIO 121700Z 1218/1303 VRB03KT 9999 FEW030 BECMG 1221/1223 SCT030 BKN080

Current satellite and rain images for Janina, Grecja

  • Opady:
  • <1 mm
  • 1-2 mm
  • 2-5 mm
  • >5 mm

Wskaźnik lokalizacji znajduje się na Janina. [Więcej]

The real-time satellite image combines visible light during daytime with infrared radiation during nighttime. At night, the image is not dark as infrared radiation can detect temperature differences. Unfortunately, low clouds and fog are difficult to distinguish from ground temperatures and thus can be almost invisible during the night. Meteosat satellite images for Europe are updated in real-time every 5 minutes. GOES-16/GOES-17 (North & South America) and Himawari (Asia) images update every 10 minutes.

Opady zostały oszacowane na podstawie danych radarowych i satelitarnych. Szacunkowe dane opadów nocnych są mniej dokładne niż dane w ciągu dnia. Pomarańczowe krzyżyki oznaczają miejsca, gdzie zaobserwowano pioruny (nad Europa).

Prawa autorskie 2021 EUMETSAT / meteoblue. Dane dot. błyskawic dostarczone przez nowcast.

Obecny stan pogody i ostrzeżenia

EUMETNET – MeteoAlarm

pictomap

Źródło: HNMS

Możliwe są opóźnienia pomiędzy tą stroną a stroną www.meteoalarm.eu. W celu uzyskania bardziej aktualnych informacji na temat alertów pogodowych publikowanych przez państwowe służby meteorologiczne, prosimy wejść na stronę www.meteoalarm.eu.